KVCT/VCT METAR and TAF weather

Enter ICAO airport designator
Station Type Date Time Source
KVCT METAR 2020/04/01 22:51 UTC NOAA

KVCT 012251Z 12011KT 10SM CLR 24/13 A2993 RMK AO2 SLP133 T02390128


Station Type Date Time Source
KVCT Decoded METAR 2020/04/01 22:51 UTC NOAA

VICTORIA REGIONAL AIRPORT, TX, United States (KVCT) 28-52N 96-56W 31M
Apr 01, 2020 - 06:51 PM EDT / 2020.04.01 2251 UTC
Wind: from the ESE (120 degrees) at 13 MPH (11 KT):0
Visibility: 10 mile(s):0
Sky conditions: clear
Temperature: 75.0 F (23.9 C)
Dew Point: 55.0 F (12.8 C)
Relative Humidity: 49%
Pressure (altimeter): 29.93 in. Hg (1013 hPa)
ob: KVCT 012251Z 12011KT 10SM CLR 24/13 A2993 RMK AO2 SLP133 T02390128
cycle: 23

Station Type Date Time Source
KVCT TAF 2020/04/01 18:46 UTC NOAA

TAF KVCT 011744Z 0118/0218 12013KT P6SM SCT035 BKN150
FM020300 12008KT P6SM SCT020 BKN080
FM021000 13004KT P6SM OVC020

Example: see airport list